Freeport, Bahamas

12:07 PM EDT on June 28, 2017 (GMT -0400)
Fortune Bay | | Change Station

Elev 7 ft 26.53 °N, 78.61 °W | Updated 7 minutes ago

Thunderstorm
Thunderstorm
79.9 °F
Feels Like 85 °F
N
3.0
Wind Variable Wind from NW
Gusts 11.0 mph

Today
High -- | Low -- °F
--% Chance of Precip.
Yesterday
High -- | Low -- °F
Precip. -- in
Pressure 30.05 in
Visibility 6.2 miles
Clouds Few 1200 ft
Scattered Clouds 1600 ft
Mostly Cloudy 25000 ft
Heat Index 85 °F
Dew Point 75 °F
Humidity 84%
Rainfall 0.00 in
Snow Depth Not available.
6:24 AM 8:11 PM
Waxing Crescent, 26% visible
SPECI MYGF 281533Z 00000KT 9999 TS VCSH FEW012CB SCT016TCU BKN250 29/25 A3005 RMK TSB33 TS NE MOV STNRY CB N/NE TCU SW/W/NW VCSH ALQDS
Pressure 30.05 in
Visibility 6.2 miles
Clouds Few 1200 ft
Scattered Clouds 1600 ft
Mostly Cloudy 25000 ft
Heat Index 85 °F
Dew Point 75 °F
Humidity 84%
Rainfall 0.00 in
Snow Depth Not available.
6:24 AM 8:11 PM
Waxing Crescent, 26% visible
SPECI MYGF 281533Z 00000KT 9999 TS VCSH FEW012CB SCT016TCU BKN250 29/25 A3005 RMK TSB33 TS NE MOV STNRY CB N/NE TCU SW/W/NW VCSH ALQDS

Get Severe Weather Alerts

Thanks for signing up!

Be on the lookout for a verification email in your inbox.

You'll start receiving the daily forecast at 6 AM.

×

10-Day Weather Forecast

No radar image for this location.
×

Almanac

Astronomy

Jun. 28, 2017 Rise Set
Actual Time
Civil Twilight
Nautical Twilight
Astronomical Twilight
Moon
Length of Visible Light
Length of Day
Tomorrow will be .
, % of the Moon is Illuminated

Today's Extremes

Country Highs Country Lows

Community

WunderPhotos

Category 6

Welcome to Category 6. This is the collective home for Weather Underground's featured writeups by Dr. Jeff Masters (right), Bob Henson (left), Chris Burt, and other regular contributors.

Nearby

Air Quality

  Air Quality AQ Index Pollutant
Not available.

Snow Depth

Station Depth Elevation

Earthquake Activity

City Distance Mag. Time & Date
Minimum magnitude displayed is 2.5.

Coastal Water Temperatures

Place Temperature

Stations

Nearby Weather Stations

Station Location Temp. Windchill Dew Point Humidity Wind Precip. Elev Updated Type